Time;durP1;ratioP1;P1;durP2;ratioP2;P2;SDS_P1;SDS_P2;PMS_P1;PMS_P2;Temp;Humidity;BMP_temperature;BMP_pressure;BME280_temperature;BME280_humidity;BME280_pressure;Samples;Min_cycle;Max_cycle;Signal;HPM_P1;HPM_P2
2022/01/06 00:00:12;;;;;;;11.33;4.87;;;1.50;99.90;;;;;;4899225;29;20188;-85
2022/01/06 00:02:38;;;;;;;8.03;4.30;;;;;;;;;;4885364;29;20184;-84
2022/01/06 00:05:04;;;;;;;11.67;4.33;;;;;;;;;;4893195;29;20191;-83
2022/01/06 00:10:53;;;;;;;10.70;3.83;;;;;;;;;;4903190;29;20172;-84
2022/01/06 00:13:26;;;;;;;7.30;4.33;;;;;;;;;;4901808;29;20250;-84
2022/01/06 00:16:16;;;;;;;9.87;5.00;;;;;;;;;;4894505;29;20222;-83
2022/01/06 00:23:55;;;;;;;13.60;6.10;;;;;;;;;;4887789;29;20244;-85
2022/01/06 00:26:21;;;;;;;13.40;5.87;;;;;;;;;;4884700;29;20197;-85
2022/01/06 00:28:48;;;;;;;15.30;6.43;;;;;;;;;;4869581;29;20203;-84
2022/01/06 00:31:14;;;;;;;15.23;6.20;;;;;;;;;;4884836;29;20196;-84
2022/01/06 00:33:40;;;;;;;10.37;5.77;;;;;;;;;;4901388;29;20181;-83
2022/01/06 00:36:06;;;;;;;8.27;5.43;;;;;;;;;;4884723;29;20280;-84
2022/01/06 00:38:32;;;;;;;17.63;6.03;;;;;;;;;;4869068;29;20221;-84
2022/01/06 00:40:58;;;;;;;16.17;6.27;;;;;;;;;;4885182;29;20174;-84
2022/01/06 00:43:25;;;;;;;16.60;5.97;;;;;;;;;;4869033;29;20197;-84
2022/01/06 00:45:51;;;;;;;15.83;6.73;;;;;;;;;;4900931;29;20667;-84
2022/01/06 00:48:17;;;;;;;15.47;6.60;;;;;;;;;;4901402;29;20185;-84
2022/01/06 00:50:44;;;;;;;14.87;6.53;;;1.40;99.90;;;;;;4901319;29;20624;-84
2022/01/06 00:53:10;;;;;;;14.87;6.43;;;;;;;;;;4900726;29;20631;-82
2022/01/06 00:55:37;;;;;;;16.17;6.00;;;1.40;99.90;;;;;;4900905;29;20182;-82
2022/01/06 00:58:04;;;;;;;18.07;7.13;;;1.40;99.90;;;;;;4900619;29;20213;-82
2022/01/06 01:00:38;;;;;;;14.67;5.70;;;1.40;99.90;;;;;;4884076;29;20280;-84
2022/01/06 01:03:19;;;;;;;10.40;5.90;;;1.40;99.90;;;;;;4901177;29;20181;-84
2022/01/06 01:05:47;;;;;;;13.63;6.37;;;1.40;99.90;;;;;;4883863;29;20186;-84
2022/01/06 01:08:13;;;;;;;22.30;7.67;;;;;;;;;;4868645;29;20233;-83
2022/01/06 01:10:40;;;;;;;13.33;6.03;;;1.40;99.90;;;;;;4883767;29;20185;-85
2022/01/06 01:13:11;;;;;;;17.37;6.23;;;;;;;;;;4883454;29;20217;-85
2022/01/06 01:15:45;;;;;;;17.23;5.10;;;;;;;;;;4884643;29;20260;-85
2022/01/06 01:18:13;;;;;;;11.37;5.73;;;;;;;;;;4883918;29;20313;-83
2022/01/06 01:20:39;;;;;;;14.10;5.80;;;;;;;;;;4883510;29;20186;-84
2022/01/06 01:23:05;;;;;;;16.43;5.70;;;;;;;;;;4868413;29;20670;-83
2022/01/06 01:25:31;;;;;;;9.73;5.00;;;;;;;;;;4900647;29;20245;-83
2022/01/06 01:27:58;;;;;;;9.77;4.67;;;;;;;;;;4883297;29;20189;-84
2022/01/06 01:30:31;;;;;;;8.50;5.00;;;;;;;;;;4883544;29;20206;-84
2022/01/06 01:32:58;;;;;;;14.23;6.10;;;1.40;99.90;;;;;;4868542;29;20288;-84
2022/01/06 01:35:30;;;;;;;14.90;5.57;;;;;;;;;;4899984;29;20176;-84
2022/01/06 01:37:57;;;;;;;8.23;4.87;;;;;;;;;;4883108;29;20213;-83
2022/01/06 01:40:23;;;;;;;13.73;5.47;;;;;;;;;;4883183;29;20276;-84
2022/01/06 01:42:49;;;;;;;14.40;5.77;;;;;;;;;;4867386;29;20221;-84
2022/01/06 01:45:16;;;;;;;16.10;5.63;;;;;;;;;;4883025;29;20280;-84
2022/01/06 01:47:45;;;;;;;14.93;5.33;;;;;;;;;;4883448;29;20221;-83
2022/01/06 01:50:20;;;;;;;15.37;5.20;;;1.50;99.90;;;;;;4900143;29;20675;-84
2022/01/06 01:52:49;;;;;;;11.17;5.50;;;1.50;99.90;;;;;;4883141;29;20208;-84
2022/01/06 01:55:21;;;;;;;8.90;5.30;;;1.50;99.90;;;;;;4882719;29;20232;-84
2022/01/06 01:57:47;;;;;;;11.87;5.10;;;;;;;;;;4899925;29;20200;-84
2022/01/06 02:00:15;;;;;;;9.03;6.20;;;1.50;99.90;;;;;;4882876;29;20185;-83
2022/01/06 02:02:41;;;;;;;14.23;6.40;;;1.50;99.90;;;;;;4882764;29;20580;-83
2022/01/06 02:05:08;;;;;;;10.43;6.00;;;1.50;99.90;;;;;;4867119;29;20221;-83
2022/01/06 02:07:35;;;;;;;13.83;6.63;;;1.60;99.90;;;;;;4899368;29;20247;-83
2022/01/06 02:10:03;;;;;;;11.40;5.53;;;1.60;99.90;;;;;;4882681;29;20189;-83
2022/01/06 02:12:33;;;;;;;14.97;6.13;;;1.60;99.90;;;;;;4882585;29;20759;-83
2022/01/06 02:14:59;;;;;;;12.17;6.73;;;;;;;;;;4899713;29;20264;-83
2022/01/06 02:17:26;;;;;;;12.03;5.93;;;;;;;;;;4899276;29;20217;-84
2022/01/06 02:19:59;;;;;;;14.47;6.07;;;1.50;99.90;;;;;;4899114;29;20269;-84
2022/01/06 02:22:26;;;;;;;10.07;5.87;;;1.60;99.90;;;;;;4882787;29;20181;-83
2022/01/06 02:24:52;;;;;;;15.00;6.47;;;;;;;;;;4881789;29;20194;-83
2022/01/06 02:27:22;;;;;;;18.07;7.20;;;1.60;99.90;;;;;;4899532;29;20185;-83
2022/01/06 02:29:51;;;;;;;13.63;6.50;;;1.70;99.90;;;;;;4899254;29;20216;-86
2022/01/06 02:32:19;;;;;;;16.23;7.97;;;1.70;99.90;;;;;;4882537;29;20189;-85
2022/01/06 02:34:45;;;;;;;13.77;8.07;;;;;;;;;;4882072;29;20194;-85
2022/01/06 02:37:13;;;;;;;19.80;7.73;;;1.70;99.90;;;;;;4867029;29;20547;-85
2022/01/06 02:39:39;;;;;;;14.37;7.60;;;;;;;;;;4866878;29;20249;-85
2022/01/06 02:42:05;;;;;;;18.53;7.93;;;1.50;99.90;;;;;;4882065;29;20642;-85
2022/01/06 02:44:31;;;;;;;12.47;7.83;;;;;;;;;;4866803;29;20186;-85
2022/01/06 02:46:57;;;;;;;13.80;7.83;;;;;;;;;;4882151;29;20706;-84
2022/01/06 02:49:23;;;;;;;12.50;6.43;;;;;;;;;;4898879;29;20339;-85
2022/01/06 02:51:49;;;;;;;15.07;7.13;;;;;;;;;;4866690;29;20193;-86
2022/01/06 02:54:16;;;;;;;15.53;8.20;;;;;;;;;;4898782;29;20177;-84
2022/01/06 02:56:43;;;;;;;19.43;8.00;;;;;;;;;;4881847;29;20268;-84
2022/01/06 02:59:10;;;;;;;17.73;8.37;;;1.80;99.90;;;;;;4881765;29;20217;-85
2022/01/06 03:01:41;;;;;;;18.60;9.07;;;1.80;99.90;;;;;;4898554;29;20181;-85
2022/01/06 03:04:07;;;;;;;14.53;8.50;;;;;;;;;;4881645;29;20192;-85
2022/01/06 03:06:33;;;;;;;17.37;8.23;;;;;;;;;;4881723;29;20220;-85
2022/01/06 03:08:59;;;;;;;22.80;8.07;;;;;;;;;;4898535;29;20690;-85
2022/01/06 03:11:26;;;;;;;14.07;7.57;;;;;;;;;;4898356;29;20180;-85
2022/01/06 03:13:55;;;;;;;14.63;7.93;;;1.80;99.90;;;;;;4866264;29;20196;-87
2022/01/06 03:16:21;;;;;;;18.40;7.83;;;;;;;;;;4866509;29;20190;-84
2022/01/06 03:18:48;;;;;;;19.93;8.63;;;;;;;;;;4898435;29;20774;-84
2022/01/06 03:21:14;;;;;;;17.67;8.83;;;;;;;;;;4881704;29;20517;-84
2022/01/06 03:23:40;;;;;;;20.80;9.43;;;;;;;;;;4881818;29;20192;-84
2022/01/06 03:26:06;;;;;;;18.43;8.57;;;;;;;;;;4899138;29;20196;-84
2022/01/06 03:28:32;;;;;;;17.27;8.83;;;;;;;;;;4881848;29;20202;-84
2022/01/06 03:30:59;;;;;;;17.87;7.73;;;;;;;;;;4898842;29;20673;-84
2022/01/06 03:33:25;;;;;;;17.70;9.30;;;;;;;;;;4898540;29;20190;-84
2022/01/06 03:35:51;;;;;;;16.00;7.80;;;;;;;;;;4899407;29;20190;-84
2022/01/06 03:38:17;;;;;;;16.67;8.20;;;;;;;;;;4885229;29;20249;-84
2022/01/06 03:40:43;;;;;;;17.73;8.63;;;;;;;;;;4885571;29;20197;-84
2022/01/06 03:43:09;;;;;;;20.17;8.57;;;1.70;99.90;;;;;;4902236;29;20268;-84
2022/01/06 03:45:35;;;;;;;17.63;8.30;;;;;;;;;;4869774;29;20662;-84
2022/01/06 03:48:03;;;;;;;14.07;7.30;;;1.70;99.90;;;;;;4907045;29;20181;-83
2022/01/06 03:50:30;;;;;;;13.93;6.40;;;;;;;;;;4891610;29;20321;-84
2022/01/06 03:52:56;;;;;;;15.13;6.97;;;;;;;;;;4903672;29;20188;-84
2022/01/06 03:55:22;;;;;;;14.40;5.67;;;;;;;;;;4885327;29;20189;-84
2022/01/06 03:57:48;;;;;;;20.13;8.47;;;;;;;;;;4885078;29;20217;-84
2022/01/06 04:00:17;;;;;;;18.00;8.63;;;1.90;99.90;;;;;;4884987;29;20207;-84
2022/01/06 04:02:43;;;;;;;22.47;8.53;;;;;;;;;;4901619;29;20181;-84
2022/01/06 04:05:10;;;;;;;17.17;7.90;;;1.90;99.90;;;;;;4884914;29;20197;-84
2022/01/06 04:07:36;;;;;;;14.43;8.00;;;;;;;;;;4901791;29;20328;-84
2022/01/06 04:10:04;;;;;;;13.27;7.13;;;2.00;99.90;;;;;;4901516;29;20177;-85
2022/01/06 04:12:33;;;;;;;15.83;7.30;;;;;;;;;;4884972;29;20181;-84
2022/01/06 04:14:59;;;;;;;18.53;9.50;;;;;;;;;;4901093;29;20210;-87
2022/01/06 04:17:25;;;;;;;12.90;6.67;;;;;;;;;;4884803;29;20185;-85
2022/01/06 04:19:51;;;;;;;10.27;4.67;;;;;;;;;;4884851;29;20190;-85
2022/01/06 04:22:17;;;;;;;15.17;7.47;;;;;;;;;;4884574;29;20597;-85
2022/01/06 04:24:45;;;;;;;15.77;7.20;;;;;;;;;;4884508;29;20210;-86
2022/01/06 04:27:11;;;;;;;16.67;6.50;;;;;;;;;;4869281;29;20225;-87
2022/01/06 04:29:37;;;;;;;18.50;7.20;;;;;;;;;;4901403;29;20187;-86
2022/01/06 04:32:03;;;;;;;14.90;7.13;;;2.30;99.90;;;;;;4883932;29;20190;-87
2022/01/06 04:34:29;;;;;;;14.33;6.87;;;;;;;;;;4900997;29;20181;-87
2022/01/06 04:36:58;;;;;;;14.83;6.27;;;;;;;;;;4868912;29;20630;-86
2022/01/06 04:39:24;;;;;;;12.97;7.07;;;;;;;;;;4901072;29;20206;-86
2022/01/06 04:41:50;;;;;;;13.20;7.60;;;;;;;;;;4884418;29;20189;-86
2022/01/06 04:44:16;;;;;;;11.70;6.30;;;;;;;;;;4901282;29;20185;-85
2022/01/06 04:46:42;;;;;;;18.07;7.97;;;;;;;;;;4883913;29;20190;-86
2022/01/06 04:49:08;;;;;;;14.60;7.00;;;;;;;;;;4883513;29;20670;-85
2022/01/06 04:51:34;;;;;;;20.27;8.40;;;;;;;;;;4884357;29;20659;-85
2022/01/06 04:54:01;;;;;;;11.57;5.60;;;;;;;;;;4883930;29;20643;-86
2022/01/06 04:56:27;;;;;;;16.00;6.43;;;;;;;;;;4884234;29;20215;-86
2022/01/06 04:58:53;;;;;;;17.67;6.93;;;;;;;;;;4900669;29;20252;-86
2022/01/06 05:01:19;;;;;;;21.47;7.17;;;;;;;;;;4900428;29;20187;-86
2022/01/06 05:03:45;;;;;;;14.37;6.83;;;;;;;;;;4900562;29;20181;-86
2022/01/06 05:06:11;;;;;;;17.77;7.43;;;;;;;;;;4883830;29;20280;-85
2022/01/06 05:08:37;;;;;;;37.50;15.37;;;;;;;;;;4868131;29;20243;-85
2022/01/06 05:11:03;;;;;;;17.07;7.63;;;;;;;;;;4883656;29;20185;-85
2022/01/06 05:13:29;;;;;;;13.27;7.60;;;;;;;;;;4883379;29;20670;-86
2022/01/06 05:15:55;;;;;;;13.67;5.10;;;;;;;;;;4900205;29;20191;-86
2022/01/06 05:18:21;;;;;;;21.13;7.23;;;;;;;;;;4883513;29;20287;-85
2022/01/06 05:20:47;;;;;;;14.03;6.40;;;;;;;;;;4883331;29;20289;-86
2022/01/06 05:23:14;;;;;;;11.10;6.03;;;;;;;;;;4900002;29;20268;-85
2022/01/06 05:25:40;;;;;;;10.33;5.27;;;;;;;;;;4883561;29;20188;-85
2022/01/06 05:28:06;;;;;;;9.40;5.87;;;;;;;;;;4883211;29;20191;-85
2022/01/06 05:30:32;;;;;;;14.70;6.60;;;;;;;;;;4883085;29;20651;-85
2022/01/06 05:32:58;;;;;;;17.67;6.00;;;;;;;;;;4900209;29;20187;-85
2022/01/06 05:35:24;;;;;;;17.60;6.23;;;;;;;;;;4882882;29;20193;-85
2022/01/06 05:37:50;;;;;;;12.13;5.40;;;;;;;;;;4867415;29;20231;-85
2022/01/06 05:40:16;;;;;;;11.67;6.17;;;;;;;;;;4882999;29;20238;-86
2022/01/06 05:42:42;;;;;;;16.90;6.23;;;;;;;;;;4883224;29;20200;-86
2022/01/06 05:45:09;;;;;;;9.30;5.97;;;2.10;99.90;;;;;;4882826;29;20657;-86
2022/01/06 05:47:36;;;;;;;12.93;5.30;;;;;;;;;;4899772;29;20181;-86
2022/01/06 05:50:03;;;;;;;11.13;5.50;;;2.10;99.90;;;;;;4883258;29;20658;-86
2022/01/06 05:52:29;;;;;;;6.97;4.43;;;;;;;;;;4882665;29;20280;-86
2022/01/06 05:54:55;;;;;;;9.83;5.17;;;;;;;;;;4899800;29;20194;-86
2022/01/06 05:57:21;;;;;;;10.07;4.77;;;;;;;;;;4867136;29;20193;-86
2022/01/06 05:59:47;;;;;;;11.47;5.33;;;;;;;;;;4899598;29;20177;-86
2022/01/06 06:02:13;;;;;;;13.97;5.23;;;;;;;;;;4882698;29;20190;-91
2022/01/06 06:04:39;;;;;;;55.97;14.90;;;;;;;;;;4899753;29;20224;-86
2022/01/06 06:07:05;;;;;;;31.70;10.77;;;;;;;;;;4899365;29;20237;-86
2022/01/06 06:09:31;;;;;;;16.10;5.73;;;;;;;;;;4867206;29;20216;-86
2022/01/06 06:11:57;;;;;;;11.87;6.97;;;;;;;;;;4867176;29;20634;-86
2022/01/06 06:14:23;;;;;;;16.20;8.37;;;;;;;;;;4882539;29;20189;-86
2022/01/06 06:16:49;;;;;;;11.73;5.47;;;;;;;;;;4899735;29;20269;-86
2022/01/06 06:19:15;;;;;;;14.70;6.37;;;;;;;;;;4898948;29;20217;-86
2022/01/06 06:21:41;;;;;;;14.63;5.63;;;;;;;;;;4883808;29;20189;-86
2022/01/06 06:24:08;;;;;;;12.80;7.37;;;;;;;;;;4875113;29;20197;-84
2022/01/06 06:26:33;;;;;;;11.80;5.60;;;;;;;;;;4889347;29;20691;-84
2022/01/06 06:29:00;;;;;;;14.00;6.17;;;;;;;;;;4909654;29;20186;-85
2022/01/06 06:31:26;;;;;;;11.57;5.80;;;;;;;;;;4888156;29;20279;-85
2022/01/06 06:33:52;;;;;;;7.33;4.73;;;;;;;;;;4915989;29;20185;-85
2022/01/06 06:36:18;;;;;;;11.83;6.20;;;;;;;;;;4896008;29;20192;-85
2022/01/06 06:38:44;;;;;;;11.83;5.07;;;;;;;;;;4895674;29;20213;-84
2022/01/06 06:41:10;;;;;;;10.97;5.40;;;;;;;;;;4894938;29;20201;-85
2022/01/06 06:43:36;;;;;;;8.03;4.60;;;;;;;;;;4881520;29;20189;-84
2022/01/06 06:46:02;;;;;;;7.00;5.27;;;;;;;;;;4913197;29;20189;-87
2022/01/06 06:48:28;;;;;;;10.80;5.50;;;;;;;;;;4896918;29;20176;-88
2022/01/06 06:50:54;;;;;;;10.63;5.40;;;;;;;;;;4883288;29;20189;-86
2022/01/06 06:53:20;;;;;;;12.10;5.17;;;;;;;;;;4892485;29;20236;-88
2022/01/06 06:55:47;;;;;;;11.30;5.10;;;;;;;;;;4882792;29;20193;-86
2022/01/06 06:58:13;;;;;;;10.93;4.77;;;;;;;;;;4898850;29;20209;-87
2022/01/06 07:00:39;;;;;;;13.80;5.70;;;;;;;;;;4882735;29;20280;-87
2022/01/06 07:03:05;;;;;;;13.67;5.27;;;;;;;;;;4882961;29;20216;-86
2022/01/06 07:05:31;;;;;;;9.87;5.17;;;;;;;;;;4882106;29;20185;-86
2022/01/06 07:07:57;;;;;;;12.57;5.10;;;;;;;;;;4881707;29;20245;-87
2022/01/06 07:10:23;;;;;;;11.60;4.87;;;;;;;;;;4866233;29;20247;-85
2022/01/06 07:12:49;;;;;;;8.80;5.03;;;;;;;;;;4899362;29;20192;-89
2022/01/06 07:15:15;;;;;;;12.20;5.10;;;;;;;;;;4866462;29;20192;-88
2022/01/06 07:17:41;;;;;;;7.33;4.50;;;;;;;;;;4898410;29;20239;-86
2022/01/06 07:20:08;;;;;;;10.37;4.97;;;2.10;99.90;;;;;;4898842;29;20181;-87
2022/01/06 07:22:34;;;;;;;7.33;4.73;;;;;;;;;;4882166;29;20190;-87
2022/01/06 07:25:03;;;;;;;8.33;4.47;;;;;;;;;;4897797;29;20189;-88
2022/01/06 07:27:29;;;;;;;9.17;4.17;;;;;;;;;;4893576;29;20199;-87
2022/01/06 07:29:55;;;;;;;8.63;4.80;;;;;;;;;;4908542;29;20192;-87
2022/01/06 07:32:21;;;;;;;9.27;4.80;;;;;;;;;;4904599;29;20290;-86
2022/01/06 07:34:47;;;;;;;10.23;4.70;;;;;;;;;;4913661;29;20280;-87
2022/01/06 07:37:13;;;;;;;10.23;4.37;;;;;;;;;;4876612;29;20193;-87
2022/01/06 07:39:39;;;;;;;9.93;4.23;;;;;;;;;;4886825;29;20224;-85
2022/01/06 07:42:06;;;;;;;10.40;4.80;;;2.50;99.90;;;;;;4867311;29;20671;-87
2022/01/06 07:44:32;;;;;;;6.70;4.00;;;;;;;;;;4898232;29;20185;-86
2022/01/06 07:46:59;;;;;;;11.77;5.33;;;;;;;;;;4881248;29;20718;-87
2022/01/06 07:49:25;;;;;;;12.23;4.60;;;;;;;;;;4901034;29;20193;-87
2022/01/06 07:51:53;;;;;;;13.60;7.07;;;;;;;;;;4885178;29;20272;-86
2022/01/06 07:54:19;;;;;;;15.20;6.43;;;;;;;;;;4891735;29;20185;-85
2022/01/06 07:56:45;;;;;;;11.03;4.83;;;;;;;;;;4866679;29;20522;-85
2022/01/06 07:59:11;;;;;;;12.47;5.43;;;;;;;;;;4875222;29;20726;-85
2022/01/06 08:01:38;;;;;;;10.23;4.27;;;;;;;;;;4878837;29;20195;-84
2022/01/06 08:04:04;;;;;;;8.87;4.87;;;;;;;;;;4897244;29;20606;-85
2022/01/06 08:06:30;;;;;;;12.60;4.80;;;;;;;;;;4895485;29;20698;-84
2022/01/06 08:09:01;;;;;;;6.50;4.37;;;2.30;99.90;;;;;;4880244;29;20647;-89
2022/01/06 08:11:27;;;;;;;9.83;4.60;;;;;;;;;;4881508;29;20189;-85
2022/01/06 08:13:56;;;;;;;10.03;4.17;;;2.40;99.90;;;;;;4883514;29;20206;-85
2022/01/06 08:16:22;;;;;;;6.77;4.33;;;;;;;;;;4850885;29;20194;-88
2022/01/06 08:18:48;;;;;;;7.00;4.80;;;;;;;;;;4864926;29;20246;-90
2022/01/06 08:21:14;;;;;;;6.63;4.00;;;;;;;;;;4870857;29;20186;-86
2022/01/06 08:23:40;;;;;;;7.90;4.63;;;;;;;;;;4885572;29;20198;-87
2022/01/06 08:26:07;;;;;;;8.57;3.47;;;;;;;;;;4903508;29;20218;-85
2022/01/06 08:28:33;;;;;;;9.43;4.03;;;;;;;;;;4902847;29;20234;-85
2022/01/06 08:31:00;;;;;;;6.87;3.43;;;;;;;;;;4882685;29;20674;-85
2022/01/06 08:33:26;;;;;;;8.30;3.47;;;;;;;;;;4893711;29;20270;-85
2022/01/06 08:35:52;;;;;;;8.67;4.20;;;;;;;;;;4871561;29;20263;-88
2022/01/06 08:38:19;;;;;;;12.30;4.97;;;;;;;;;;4894019;29;20221;-87
2022/01/06 08:40:45;;;;;;;7.73;4.47;;;;;;;;;;4882223;29;20202;-88
2022/01/06 08:43:11;;;;;;;7.17;4.40;;;;;;;;;;4905631;29;20192;-86
2022/01/06 08:45:37;;;;;;;7.53;3.73;;;;;;;;;;4902787;29;20249;-84
2022/01/06 08:48:03;;;;;;;8.00;4.20;;;;;;;;;;4903172;29;20183;-85
2022/01/06 08:50:29;;;;;;;5.83;3.70;;;;;;;;;;4897256;29;20194;-83
2022/01/06 08:52:56;;;;;;;5.93;4.03;;;2.50;99.90;;;;;;4903633;29;20197;-84
2022/01/06 08:55:22;;;;;;;8.60;3.20;;;;;;;;;;4900968;29;20179;-84
2022/01/06 08:57:48;;;;;;;7.00;4.53;;;;;;;;;;4918803;29;20244;-85
2022/01/06 09:00:15;;;;;;;7.57;4.47;;;;;;;;;;4911118;29;20210;-85
2022/01/06 09:02:41;;;;;;;7.60;4.27;;;;;;;;;;4899884;29;20208;-85
2022/01/06 09:05:10;;;;;;;12.60;4.30;;;2.70;99.90;;;;;;4884801;29;20194;-88
2022/01/06 09:07:37;;;;;;;8.17;4.03;;;2.40;99.90;;;;;;4900277;29;20280;-86
2022/01/06 09:10:04;;;;;;;6.80;4.50;;;2.50;99.90;;;;;;4906700;29;20193;-83
2022/01/06 09:12:30;;;;;;;9.87;5.00;;;;;;;;;;4907313;29;20182;-89
2022/01/06 09:14:56;;;;;;;7.17;3.93;;;;;;;;;;4876107;29;20186;-83
2022/01/06 09:17:22;;;;;;;7.10;4.23;;;;;;;;;;4902394;29;20550;-84
2022/01/06 09:19:48;;;;;;;5.27;4.03;;;;;;;;;;4889100;29;20186;-84
2022/01/06 09:22:14;;;;;;;9.33;4.53;;;;;;;;;;4885419;29;20192;-85
2022/01/06 09:24:40;;;;;;;5.30;3.80;;;;;;;;;;4896078;29;20196;-84
2022/01/06 09:27:07;;;;;;;6.33;3.83;;;;;;;;;;4890371;29;20561;-84
2022/01/06 09:29:33;;;;;;;7.23;3.90;;;;;;;;;;4870578;29;20261;-84
2022/01/06 09:31:59;;;;;;;7.90;3.70;;;;;;;;;;4897997;29;20275;-86
2022/01/06 09:34:26;;;;;;;6.53;3.20;;;;;;;;;;4891635;29;20257;-86
2022/01/06 09:36:52;;;;;;;11.47;2.70;;;;;;;;;;4888560;29;20202;-85
2022/01/06 09:39:18;;;;;;;5.03;3.03;;;;;;;;;;4920991;29;20233;-84
2022/01/06 09:41:44;;;;;;;4.57;3.33;;;;;;;;;;4909805;29;20271;-83
2022/01/06 09:44:11;;;;;;;9.10;3.30;;;;;;;;;;4901574;29;20194;-84
2022/01/06 09:46:37;;;;;;;4.77;3.13;;;;;;;;;;4869790;29;20197;-84
2022/01/06 09:49:03;;;;;;;7.87;4.50;;;;;;;;;;4868541;29;20203;-84
2022/01/06 09:51:29;;;;;;;6.63;3.40;;;2.90;99.90;;;;;;4868299;29;20220;-86
2022/01/06 09:53:58;;;;;;;6.20;3.37;;;3.00;99.90;;;;;;4880446;29;20216;-84
2022/01/06 09:56:26;;;;;;;7.40;3.90;;;3.00;99.90;;;;;;4883473;29;20554;-84
2022/01/06 09:58:53;;;;;;;5.60;3.70;;;;;;;;;;4884427;29;20211;-89
2022/01/06 10:01:20;;;;;;;5.90;3.23;;;;;;;;;;4884426;29;20565;-90
2022/01/06 10:03:48;;;;;;;6.37;3.73;;;3.20;99.90;;;;;;4872162;29;20249;-88
2022/01/06 10:06:23;;;;;;;7.13;3.07;;;3.20;99.90;;;;;;4851659;29;20220;-86
2022/01/06 10:09:04;;;;;;;7.03;4.03;;;3.40;99.90;;;;;;4894655;29;20726;-85
2022/01/06 10:11:34;;;;;;;5.60;3.83;;;3.20;99.90;;;;;;4893654;29;20296;-83
2022/01/06 10:14:05;;;;;;;8.10;3.57;;;3.30;99.90;;;;;;4894771;29;20210;-86
2022/01/06 10:16:40;;;;;;;6.87;3.40;;;;;;;;;;4885144;29;20185;-87
2022/01/06 10:19:11;;;;;;;8.33;3.73;;;3.50;99.90;;;;;;4880181;29;20268;-87
2022/01/06 10:21:42;;;;;;;7.37;3.77;;;3.50;99.90;;;;;;4916964;29;20195;-86
2022/01/06 10:24:20;;;;;;;6.73;3.80;;;3.50;99.90;;;;;;4883880;29;20242;-85
2022/01/06 10:27:04;;;;;;;6.73;3.83;;;3.70;99.90;;;;;;4884623;29;20206;-85
2022/01/06 10:29:32;;;;;;;6.57;4.20;;;3.50;99.90;;;;;;4883137;29;20198;-85
2022/01/06 10:32:08;;;;;;;6.47;3.77;;;;;;;;;;4894702;29;20711;-85
2022/01/06 10:34:37;;;;;;;7.27;2.93;;;3.60;99.90;;;;;;4875134;29;20191;-84
2022/01/06 10:37:05;;;;;;;5.77;3.50;;;3.60;99.90;;;;;;4885700;29;20547;-86
2022/01/06 10:39:44;;;;;;;5.83;3.60;;;;;;;;;;4861996;29;20570;-84
2022/01/06 10:42:10;;;;;;;7.23;3.17;;;;;;;;;;4894285;29;20285;-84
2022/01/06 10:44:50;;;;;;;5.00;3.40;;;;;;;;;;4877137;29;20257;-84
2022/01/06 10:47:38;;;;;;;7.60;3.60;;;4.10;99.90;;;;;;4882663;29;20194;-83
2022/01/06 10:50:26;;;;;;;5.40;3.00;;;;;;;;;;4885971;29;20269;-85
2022/01/06 10:52:52;;;;;;;3.83;3.00;;;4.30;99.90;;;;;;4884025;29;20264;-84
2022/01/06 10:55:18;;;;;;;5.73;3.40;;;;;;;;;;4888503;29;20189;-83
2022/01/06 10:57:51;;;;;;;8.23;3.57;;;3.70;99.90;;;;;;4882124;29;20268;-83
2022/01/06 11:00:18;;;;;;;4.87;2.93;;;3.90;99.90;;;;;;4895919;29;20200;-84
2022/01/06 11:02:44;;;;;;;3.93;3.00;;;4.00;99.90;;;;;;4879211;29;20203;-84
2022/01/06 11:05:10;;;;;;;3.63;2.30;;;;;;;;;;4878936;29;20197;-85
2022/01/06 11:07:36;;;;;;;7.87;3.07;;;3.70;99.90;;;;;;4887293;29;20229;-84
2022/01/06 11:10:14;;;;;;;7.47;3.97;;;3.70;99.90;;;;;;4873093;29;20189;-84
2022/01/06 11:12:40;;;;;;;4.53;2.83;;;;;;;;;;4905786;29;20615;-86
2022/01/06 11:15:07;;;;;;;5.90;2.50;;;3.50;99.90;;;;;;4892820;29;20632;-84
2022/01/06 11:17:34;;;;;;;4.07;2.50;;;3.60;99.90;;;;;;4890102;29;20192;-86
2022/01/06 11:20:00;;;;;;;5.27;2.87;;;;;;;;;;4899501;29;20188;-86
2022/01/06 11:22:27;;;;;;;5.90;3.20;;;;;;;;;;4882952;29;20607;-87
2022/01/06 11:24:54;;;;;;;4.27;2.87;;;3.60;99.90;;;;;;4882936;29;20196;-86
2022/01/06 11:27:33;;;;;;;8.07;3.27;;;-0.20;99.90;;;;;;4891892;29;20658;-85
2022/01/06 11:30:11;;;;;;;3.17;2.63;;;3.60;99.90;;;;;;4899616;29;20631;-87
2022/01/06 11:32:39;;;;;;;4.13;2.70;;;;;;;;;;4900232;29;20181;-88
2022/01/06 11:35:25;;;;;;;5.60;2.70;;;3.90;99.90;;;;;;4899363;29;20186;-88
2022/01/06 11:37:52;;;;;;;6.10;3.47;;;3.70;99.90;;;;;;4898662;29;20308;-86
2022/01/06 11:40:35;;;;;;;6.40;3.60;;;3.60;99.90;;;;;;4882565;29;20185;-88
2022/01/06 11:43:02;;;;;;;5.43;3.30;;;;;;;;;;4885878;29;20248;-86
2022/01/06 11:45:28;;;;;;;4.10;3.40;;;;;;;;;;4885438;29;20195;-88
2022/01/06 11:48:04;;;;;;;8.73;3.93;;;3.40;99.90;;;;;;4918974;29;20579;-85
2022/01/06 11:50:36;;;;;;;9.23;4.17;;;3.40;99.90;;;;;;4918528;29;20180;-86
2022/01/06 11:53:03;;;;;;;8.03;3.73;;;;;;;;;;4901227;29;20194;-87
2022/01/06 11:55:36;;;;;;;8.60;3.97;;;3.30;99.90;;;;;;4886488;29;20648;-87
2022/01/06 11:58:18;;;;;;;6.23;3.73;;;3.50;99.90;;;;;;4920910;29;20662;-87
2022/01/06 12:01:06;;;;;;;7.67;4.80;;;3.40;99.90;;;;;;4908548;29;20192;-86
2022/01/06 12:03:36;;;;;;;4.53;3.00;;;;;;;;;;4870972;29;20271;-85
2022/01/06 12:06:02;;;;;;;5.03;3.30;;;;;;;;;;4885781;29;20677;-87
2022/01/06 12:08:42;;;;;;;4.73;2.97;;;;;;;;;;4903643;29;20322;-87
2022/01/06 12:11:21;;;;;;;3.70;2.50;;;;;;;;;;4887942;29;20196;-88
2022/01/06 12:13:48;;;;;;;3.80;2.10;;;;;;;;;;4909821;29;20200;-88
2022/01/06 12:16:23;;;;;;;4.17;2.60;;;;;;;;;;4905286;29;20195;-87
2022/01/06 12:18:49;;;;;;;2.90;2.20;;;;;;;;;;4896902;29;20208;-87
2022/01/06 12:21:15;;;;;;;2.90;1.90;;;;;;;;;;4871937;29;20212;-86
2022/01/06 12:23:41;;;;;;;3.00;2.10;;;;;;;;;;4867214;29;20197;-87
2022/01/06 12:26:12;;;;;;;3.33;2.10;;;;;;;;;;4885352;29;20656;-86
2022/01/06 12:28:46;;;;;;;5.33;2.57;;;;;;;;;;4885207;29;20218;-85
2022/01/06 12:31:14;;;;;;;2.37;1.90;;;;;;;;;;4889644;29;20185;-85
2022/01/06 12:33:45;;;;;;;2.97;1.63;;;;;;;;;;4876235;29;20194;-86
2022/01/06 12:36:12;;;;;;;5.53;2.50;;;;;;;;;;4896875;29;20186;-85
2022/01/06 12:38:39;;;;;;;6.77;2.70;;;;;;;;;;4907997;29;20205;-85
2022/01/06 12:41:05;;;;;;;5.80;3.00;;;;;;;;;;4906356;29;20196;-85
2022/01/06 12:43:34;;;;;;;4.97;2.90;;;2.30;99.90;;;;;;4886039;29;20193;-86
2022/01/06 12:46:08;;;;;;;8.47;3.30;;;;;;;;;;4905073;29;20608;-87
2022/01/06 12:48:39;;;;;;;4.83;2.60;;;2.40;99.90;;;;;;4887069;29;20656;-85
2022/01/06 12:51:06;;;;;;;4.80;3.17;;;;;;;;;;4884876;29;20272;-84
2022/01/06 12:53:33;;;;;;;5.67;3.13;;;;;;;;;;4879355;29;20186;-85
2022/01/06 12:56:00;;;;;;;3.07;2.07;;;;;;;;;;4901603;29;20190;-86
2022/01/06 12:58:28;;;;;;;5.63;2.87;;;2.30;99.90;;;;;;4884702;29;20248;-85
2022/01/06 13:00:57;;;;;;;7.23;3.57;;;2.40;99.90;;;;;;4903331;29;20200;-84
2022/01/06 13:03:40;;;;;;;5.47;2.83;;;2.40;99.90;;;;;;4889519;29;20174;-85
2022/01/06 13:06:11;;;;;;;6.47;3.40;;;2.40;99.90;;;;;;4910194;29;20189;-85
2022/01/06 13:08:51;;;;;;;9.60;2.93;;;2.40;99.90;;;;;;4912488;29;20292;-84
2022/01/06 13:11:20;;;;;;;7.57;3.10;;;;;;;;;;4895782;29;20178;-85
2022/01/06 13:13:50;;;;;;;4.47;2.40;;;;;;;;;;4905661;29;20658;-85
2022/01/06 13:16:17;;;;;;;3.60;2.73;;;;;;;;;;4901020;29;20211;-86
2022/01/06 13:19:12;;;;;;;2.13;1.97;;;2.40;99.90;;;;;;4889309;29;20222;-84
2022/01/06 13:21:59;;;;;;;5.07;3.27;;;2.30;99.90;;;;;;4887240;29;20193;-86
2022/01/06 13:24:29;;;;;;;4.30;3.03;;;2.20;99.90;;;;;;4912545;29;20193;-83
2022/01/06 13:26:57;;;;;;;3.63;2.73;;;;;;;;;;4908198;29;20193;-82
2022/01/06 13:29:27;;;;;;;6.57;3.33;;;;;;;;;;4922125;29;20247;-85
2022/01/06 13:32:03;;;;;;;6.83;3.63;;;2.20;99.90;;;;;;4918885;29;20179;-84
2022/01/06 13:34:30;;;;;;;5.60;3.50;;;;;;;;;;4895753;29;20203;-88
2022/01/06 13:37:23;;;;;;;6.50;3.20;;;2.10;99.90;;;;;;4895722;29;20197;-86
2022/01/06 13:39:51;;;;;;;5.23;3.13;;;2.00;99.90;;;;;;4906168;29;20236;-84
2022/01/06 13:42:25;;;;;;;5.70;3.40;;;;;;;;;;4916360;29;20248;-84
2022/01/06 13:44:54;;;;;;;6.47;3.73;;;1.90;99.90;;;;;;4888549;29;20646;-86
2022/01/06 13:47:47;;;;;;;4.30;2.83;;;1.90;99.90;;;;;;4883692;29;20212;-86
2022/01/06 13:56:31;;;;;;;4.53;3.03;;;;;;;;;;5126503;23;20339;-85
2022/01/06 13:58:58;;;;;;;6.90;3.97;;;;;;;;;;4901372;29;20204;-86
2022/01/06 14:01:28;;;;;;;11.10;4.53;;;;;;;;;;4919191;29;20200;-85
2022/01/06 14:03:57;;;;;;;12.93;5.37;;;;;;;;;;4898517;29;20215;-85
2022/01/06 14:06:25;;;;;;;6.67;3.60;;;1.90;99.90;;;;;;4901739;29;20596;-85
2022/01/06 14:08:52;;;;;;;7.10;4.23;;;;;;;;;;4902222;29;20203;-84
2022/01/06 14:11:19;;;;;;;5.87;3.70;;;1.80;99.90;;;;;;4901676;29;20208;-87
2022/01/06 14:13:47;;;;;;;6.57;4.40;;;;;;;;;;4908728;29;20673;-84
2022/01/06 14:16:13;;;;;;;6.90;4.23;;;;;;;;;;4900444;29;20211;-85
2022/01/06 14:18:39;;;;;;;9.40;3.30;;;;;;;;;;4917767;29;20227;-85
2022/01/06 14:21:06;;;;;;;6.50;5.17;;;;;;;;;;4901767;29;20292;-84
2022/01/06 14:23:33;;;;;;;8.43;4.90;;;;;;;;;;4902381;29;20188;-84